createdAt,value
2017-01-18T00:00:01.062Z,0
2017-01-18T00:02:14.195Z,0
2017-01-18T00:04:26.656Z,0
2017-01-18T00:06:34.670Z,0
2017-01-18T00:08:47.222Z,0
2017-01-18T00:10:59.975Z,0
2017-01-18T00:13:12.308Z,0
2017-01-18T00:15:24.756Z,0
2017-01-18T00:17:32.121Z,0
2017-01-18T00:19:40.054Z,0
2017-01-18T00:22:02.540Z,0
2017-01-18T00:24:14.781Z,0
2017-01-18T00:26:28.934Z,0
2017-01-18T00:28:41.375Z,0
2017-01-18T00:30:54.977Z,0
2017-01-18T00:33:02.739Z,0
2017-01-18T00:35:16.641Z,0
2017-01-18T00:37:28.988Z,0
2017-01-18T00:39:41.518Z,0
2017-01-18T00:41:52.449Z,0
2017-01-18T00:44:05.450Z,0
2017-01-18T00:46:18.472Z,0
2017-01-18T00:48:30.767Z,0
2017-01-18T00:50:46.959Z,0
2017-01-18T00:52:59.708Z,0
2017-01-18T00:55:12.470Z,0
2017-01-18T00:57:26.485Z,0
2017-01-18T00:59:38.775Z,0
2017-01-18T01:01:51.663Z,0
2017-01-18T01:04:04.882Z,0
2017-01-18T01:06:17.750Z,0
2017-01-18T01:08:32.666Z,0
2017-01-18T01:10:47.449Z,0
2017-01-18T01:13:00.488Z,0
2017-01-18T01:15:15.681Z,0
2017-01-18T01:17:29.117Z,0
2017-01-18T01:19:36.554Z,0
2017-01-18T01:21:49.250Z,0
2017-01-18T01:24:01.632Z,0
2017-01-18T01:26:14.118Z,0
2017-01-18T01:28:28.247Z,0
2017-01-18T01:30:35.464Z,0
2017-01-18T01:32:48.667Z,0
2017-01-18T01:35:02.732Z,0
2017-01-18T01:37:15.230Z,0
2017-01-18T01:39:27.920Z,0
2017-01-18T01:41:41.004Z,0
2017-01-18T01:43:49.003Z,0
2017-01-18T01:46:01.320Z,0
2017-01-18T01:48:13.661Z,0
2017-01-18T01:50:25.875Z,0
2017-01-18T01:52:38.543Z,0
2017-01-18T01:54:50.246Z,0
2017-01-18T01:57:02.646Z,0
2017-01-18T01:59:14.876Z,0
2017-01-18T02:01:27.830Z,0
2017-01-18T02:03:40.180Z,0
2017-01-18T02:05:52.802Z,0
2017-01-18T02:08:05.184Z,0
2017-01-18T02:10:18.123Z,0
2017-01-18T02:14:43.315Z,0
2017-01-18T02:16:55.580Z,0
2017-01-18T02:19:02.875Z,0
2017-01-18T02:21:15.338Z,0
2017-01-18T02:23:27.709Z,0
2017-01-18T02:25:35.801Z,0
2017-01-18T02:27:44.420Z,0
2017-01-18T02:29:56.843Z,0
2017-01-18T02:32:10.047Z,0
2017-01-18T02:34:18.404Z,0
2017-01-18T02:36:31.058Z,0
2017-01-18T02:38:43.698Z,0
2017-01-18T02:40:56.804Z,0
2017-01-18T02:43:09.463Z,0
2017-01-18T02:45:16.617Z,0
2017-01-18T02:47:27.557Z,0
2017-01-18T02:49:40.679Z,0
2017-01-18T02:51:54.138Z,0
2017-01-18T02:54:07.207Z,0
2017-01-18T02:56:20.477Z,0
2017-01-18T02:58:34.727Z,0
2017-01-18T03:00:50.274Z,0
2017-01-18T03:03:04.652Z,0
2017-01-18T03:05:13.061Z,0
2017-01-18T03:07:25.489Z,0
2017-01-18T03:09:38.213Z,0
2017-01-18T03:11:45.586Z,0
2017-01-18T03:13:57.925Z,0
2017-01-18T03:16:10.664Z,0
2017-01-18T03:18:23.171Z,0
2017-01-18T03:20:35.424Z,0
2017-01-18T03:22:47.708Z,0
2017-01-18T03:25:00.107Z,0
2017-01-18T03:27:12.472Z,0
2017-01-18T03:29:19.950Z,0
2017-01-18T03:31:32.283Z,0
2017-01-18T03:33:44.533Z,0
2017-01-18T03:35:56.971Z,0
2017-01-18T03:38:10.436Z,0
2017-01-18T03:40:22.845Z,0
2017-01-18T03:42:35.436Z,0
2017-01-18T03:44:48.642Z,0
2017-01-18T03:47:01.762Z,0
2017-01-18T03:49:09.135Z,0
2017-01-18T03:51:21.407Z,0
2017-01-18T03:53:34.055Z,0
2017-01-18T03:55:46.654Z,0
2017-01-18T03:57:58.878Z,0
2017-01-18T04:00:11.365Z,0
2017-01-18T04:02:18.557Z,0
2017-01-18T04:04:31.176Z,0
2017-01-18T04:06:38.480Z,0
2017-01-18T04:08:51.570Z,0
2017-01-18T04:10:59.072Z,0
2017-01-18T04:13:11.423Z,0
2017-01-18T04:15:23.909Z,0
2017-01-18T04:17:38.600Z,0
2017-01-18T04:19:52.319Z,0
2017-01-18T04:22:04.720Z,0
2017-01-18T04:24:17.417Z,0
2017-01-18T04:26:30.615Z,0
2017-01-18T04:28:43.118Z,0
2017-01-18T04:30:55.500Z,0
2017-01-18T04:33:08.135Z,0
2017-01-18T04:35:15.570Z,0
2017-01-18T04:37:28.062Z,0
2017-01-18T04:39:40.481Z,0
2017-01-18T04:41:48.308Z,0
2017-01-18T04:44:00.559Z,0
2017-01-18T04:46:12.938Z,0
2017-01-18T04:48:25.462Z,0
2017-01-18T04:50:37.991Z,0
2017-01-18T04:52:50.891Z,0
2017-01-18T04:55:03.493Z,0
2017-01-18T04:57:15.783Z,0
2017-01-18T04:59:27.988Z,0
2017-01-18T05:01:40.275Z,0
2017-01-18T05:03:47.537Z,0
2017-01-18T05:06:00.098Z,0
2017-01-18T05:08:12.457Z,0
2017-01-18T05:10:26.732Z,0
2017-01-18T05:12:40.989Z,0
2017-01-18T05:14:54.980Z,0
2017-01-18T05:17:11.040Z,0
2017-01-18T05:19:25.933Z,0
2017-01-18T05:21:42.852Z,0
2017-01-18T05:23:56.738Z,0
2017-01-18T05:26:07.037Z,0
2017-01-18T05:28:16.992Z,0
2017-01-18T05:30:30.291Z,0
2017-01-18T05:32:39.311Z,0
2017-01-18T05:34:55.188Z,0
2017-01-18T05:37:07.550Z,0
2017-01-18T05:39:24.384Z,0
2017-01-18T05:41:38.855Z,0
2017-01-18T05:43:53.006Z,0
2017-01-18T05:46:09.275Z,0
2017-01-18T05:48:24.747Z,0
2017-01-18T05:50:38.689Z,0
2017-01-18T05:52:52.991Z,0
2017-01-18T05:55:05.667Z,0
2017-01-18T05:57:17.865Z,0
2017-01-18T05:59:30.291Z,0
2017-01-18T06:01:39.746Z,0
2017-01-18T06:03:52.531Z,0
2017-01-18T06:06:05.826Z,0
2017-01-18T06:08:21.885Z,0
2017-01-18T06:10:31.821Z,0
2017-01-18T06:12:46.041Z,0
2017-01-18T06:15:01.151Z,0
2017-01-18T06:17:16.179Z,0
2017-01-18T06:19:29.359Z,0
2017-01-18T06:21:42.062Z,0
2017-01-18T06:23:56.465Z,0
2017-01-18T06:26:21.548Z,4
2017-01-18T06:28:50.220Z,0
2017-01-18T06:31:07.341Z,4
2017-01-18T06:33:13.129Z,4
2017-01-18T06:35:26.818Z,8
2017-01-18T06:37:34.753Z,12
2017-01-18T06:39:47.551Z,16
2017-01-18T06:42:00.283Z,24
2017-01-18T06:44:12.929Z,24
2017-01-18T06:46:26.193Z,36
2017-01-18T06:48:39.890Z,52
2017-01-18T06:50:53.152Z,68
2017-01-18T06:53:05.643Z,84
2017-01-18T06:55:20.944Z,104
2017-01-18T06:57:33.181Z,128
2017-01-18T06:59:46.530Z,156
2017-01-18T07:01:59.716Z,184
2017-01-18T07:04:13.479Z,224
2017-01-18T07:06:26.792Z,256
2017-01-18T07:08:39.675Z,304
2017-01-18T07:10:53.437Z,344
2017-01-18T07:13:01.190Z,404
2017-01-18T07:15:14.275Z,456
2017-01-18T07:17:21.693Z,524
2017-01-18T07:19:36.696Z,600
2017-01-18T07:21:51.267Z,688
2017-01-18T07:23:59.282Z,772
2017-01-18T07:26:12.977Z,920
2017-01-18T07:28:26.008Z,956
2017-01-18T07:30:39.586Z,1064
2017-01-18T07:32:52.711Z,1220
2017-01-18T07:35:06.485Z,1260
2017-01-18T07:37:18.808Z,1476
2017-01-18T07:39:31.478Z,1492
2017-01-18T07:41:44.084Z,1684
2017-01-18T07:43:56.786Z,1768
2017-01-18T07:46:11.143Z,1780
2017-01-18T07:48:26.575Z,1756
2017-01-18T07:50:41.690Z,2008
2017-01-18T07:52:55.635Z,2076
2017-01-18T07:55:08.003Z,2276
2017-01-18T07:57:25.019Z,2436
2017-01-18T07:59:40.523Z,2504
2017-01-18T08:01:51.608Z,2708
2017-01-18T08:04:04.407Z,2752
2017-01-18T08:06:18.041Z,2872
2017-01-18T08:08:32.955Z,3128
2017-01-18T08:10:43.174Z,3340
2017-01-18T08:12:57.244Z,3008
2017-01-18T08:15:14.643Z,3240
2017-01-18T08:17:30.193Z,3404
2017-01-18T08:19:38.047Z,3464
2017-01-18T08:21:48.546Z,4124
2017-01-18T08:24:00.845Z,4060
2017-01-18T08:26:13.135Z,4580
2017-01-18T08:28:18.701Z,4436
2017-01-18T08:30:30.856Z,4612
2017-01-18T08:32:39.533Z,4532
2017-01-18T08:34:52.345Z,4972
2017-01-18T08:36:59.613Z,5144
2017-01-18T08:39:13.184Z,4996
2017-01-18T08:41:25.420Z,4952
2017-01-18T08:43:32.857Z,5188
2017-01-18T08:45:45.409Z,4744
2017-01-18T08:47:59.161Z,5312
2017-01-18T08:50:12.584Z,4664
2017-01-18T08:52:24.885Z,5220
2017-01-18T08:54:37.841Z,4332
2017-01-18T08:56:55.012Z,5180
2017-01-18T08:59:07.691Z,4868
2017-01-18T09:01:19.947Z,5608
2017-01-18T09:03:33.670Z,4892
2017-01-18T09:05:45.952Z,5732
2017-01-18T09:07:58.421Z,5236
2017-01-18T09:10:12.984Z,6396
2017-01-18T09:12:26.759Z,5476
2017-01-18T09:14:39.116Z,5940
2017-01-18T09:16:51.397Z,4964
2017-01-18T09:19:07.398Z,5956
2017-01-18T09:21:21.286Z,5688
2017-01-18T09:23:34.225Z,5848
2017-01-18T09:25:48.385Z,6064
2017-01-18T09:28:02.483Z,5896
2017-01-18T09:30:18.424Z,5908
2017-01-18T09:34:47.557Z,6484
2017-01-18T09:37:02.070Z,6000
2017-01-18T09:39:11.625Z,6076
2017-01-18T09:41:25.714Z,6452
2017-01-18T09:43:42.764Z,6328
2017-01-18T09:45:56.181Z,6372
2017-01-18T09:48:09.375Z,6248
2017-01-18T09:50:23.728Z,7068
2017-01-18T09:52:38.065Z,6152
2017-01-18T09:54:51.295Z,6752
2017-01-18T09:57:05.675Z,6368
2017-01-18T09:59:20.179Z,6620
2017-01-18T10:01:33.859Z,6260
2017-01-18T10:03:46.882Z,6456
2017-01-18T10:05:56.104Z,7296
2017-01-18T10:08:08.643Z,6512
2017-01-18T10:10:22.791Z,6812
2017-01-18T10:12:35.577Z,6252
2017-01-18T10:14:43.054Z,7280
2017-01-18T10:16:55.503Z,7172
2017-01-18T10:18:58.010Z,7928
2017-01-18T10:21:08.606Z,7548
2017-01-18T10:23:21.090Z,7176
2017-01-18T10:25:31.690Z,6776
2017-01-18T10:27:43.989Z,7824
2017-01-18T10:29:56.391Z,6800
2017-01-18T10:32:08.911Z,6988
2017-01-18T10:34:21.296Z,7212
2017-01-18T10:36:29.169Z,7496
2017-01-18T10:38:41.944Z,7564
2017-01-18T10:40:54.364Z,7628
2017-01-18T10:43:01.770Z,7564
2017-01-18T10:45:14.183Z,9196
2017-01-18T10:47:16.520Z,8476
2017-01-18T10:49:28.771Z,8552
2017-01-18T10:51:36.369Z,8348
2017-01-18T10:53:48.724Z,9900
2017-01-18T10:55:55.955Z,8064
2017-01-18T10:58:03.178Z,11428
2017-01-18T11:00:15.513Z,8548
2017-01-18T11:02:27.999Z,10132
2017-01-18T11:04:40.374Z,8544
2017-01-18T11:06:52.721Z,8956
2017-01-18T11:09:05.225Z,8948
2017-01-18T11:11:17.932Z,8556
2017-01-18T11:13:30.569Z,7696
2017-01-18T11:15:42.989Z,7192
2017-01-18T11:17:55.489Z,7656
2017-01-18T11:20:07.950Z,7308
2017-01-18T11:22:20.275Z,7752
2017-01-18T11:24:32.599Z,7452
2017-01-18T11:26:44.797Z,6888
2017-01-18T11:28:57.105Z,6812
2017-01-18T11:31:09.464Z,6900
2017-01-18T11:33:21.743Z,7120
2017-01-18T11:35:34.038Z,6672
2017-01-18T11:37:46.283Z,8848
2017-01-18T11:39:58.905Z,7344
2017-01-18T11:42:11.251Z,8240
2017-01-18T11:44:23.568Z,7288
2017-01-18T11:46:36.104Z,7732
2017-01-18T11:48:49.365Z,7880
2017-01-18T11:51:01.677Z,9324
2017-01-18T11:53:09.236Z,8788
2017-01-18T11:55:21.444Z,8784
2017-01-18T11:57:28.787Z,7632
2017-01-18T11:59:41.061Z,7868
2017-01-18T12:01:53.473Z,7632
2017-01-18T12:04:11.924Z,6952
2017-01-18T12:06:24.094Z,7000
2017-01-18T12:08:36.545Z,7944
2017-01-18T12:10:48.902Z,7184
2017-01-18T12:13:01.150Z,8024
2017-01-18T12:15:13.594Z,6408
2017-01-18T12:17:25.920Z,7732
2017-01-18T12:19:38.664Z,7132
2017-01-18T12:21:51.629Z,7676
2017-01-18T12:24:05.755Z,6936
2017-01-18T12:26:19.740Z,7292
2017-01-18T12:28:35.402Z,8560
2017-01-18T12:30:50.928Z,6876
2017-01-18T12:32:58.258Z,6896
2017-01-18T12:35:12.394Z,6936
2017-01-18T12:37:28.617Z,6820
2017-01-18T12:39:42.987Z,5992
2017-01-18T12:41:56.664Z,6392
2017-01-18T12:44:13.868Z,6780
2017-01-18T12:46:28.492Z,6152
2017-01-18T12:48:42.687Z,5964
2017-01-18T12:50:55.640Z,5508
2017-01-18T12:53:12.477Z,5524
2017-01-18T12:55:30.039Z,5080
2017-01-18T12:57:46.889Z,6328
2017-01-18T13:00:02.445Z,5364
2017-01-18T13:02:20.430Z,5924
2017-01-18T13:04:38.570Z,5948
2017-01-18T13:06:48.849Z,6584
2017-01-18T13:09:04.056Z,6232
2017-01-18T13:11:20.137Z,6084
2017-01-18T13:13:34.927Z,6200
2017-01-18T13:15:47.958Z,5552
2017-01-18T13:17:56.493Z,5592
2017-01-18T13:20:11.642Z,5704
2017-01-18T13:22:21.648Z,5836
2017-01-18T13:24:37.131Z,5864
2017-01-18T13:26:53.016Z,5196
2017-01-18T13:29:06.633Z,4672
2017-01-18T13:31:23.718Z,4812
2017-01-18T13:33:33.206Z,4812
2017-01-18T13:35:49.272Z,5100
2017-01-18T13:38:07.364Z,5236
2017-01-18T13:40:21.563Z,6584
2017-01-18T13:42:39.148Z,5628
2017-01-18T13:44:51.714Z,5300
2017-01-18T13:47:09.109Z,4972
2017-01-18T13:49:23.655Z,5028
2017-01-18T13:51:38.960Z,4824
2017-01-18T13:53:54.266Z,4444
2017-01-18T13:56:04.214Z,4000
2017-01-18T13:58:18.779Z,3632
2017-01-18T14:00:33.151Z,3792
2017-01-18T14:02:47.255Z,3464
2017-01-18T14:07:17.861Z,3268
2017-01-18T14:09:34.255Z,3380
2017-01-18T14:11:49.677Z,4732
2017-01-18T14:14:02.046Z,4216
2017-01-18T14:16:19.000Z,3684
2017-01-18T14:18:31.588Z,3592
2017-01-18T14:20:46.268Z,3064
2017-01-18T14:23:01.084Z,2896
2017-01-18T14:25:18.391Z,2612
2017-01-18T14:27:34.949Z,2416
2017-01-18T14:29:51.395Z,2308
2017-01-18T14:32:06.286Z,2156
2017-01-18T14:34:22.173Z,1940
2017-01-18T14:36:36.894Z,1772
2017-01-18T14:38:54.915Z,1732
2017-01-18T14:41:10.275Z,1840
2017-01-18T14:43:27.682Z,1748
2017-01-18T14:45:44.427Z,1676
2017-01-18T14:47:57.836Z,1752
2017-01-18T14:50:10.377Z,1568
2017-01-18T14:52:22.965Z,1508
2017-01-18T14:54:35.528Z,1468
2017-01-18T14:56:47.895Z,1500
2017-01-18T14:59:00.253Z,1504
2017-01-18T15:01:12.548Z,1412
2017-01-18T15:03:25.076Z,1260
2017-01-18T15:05:40.593Z,1232
2017-01-18T15:07:56.739Z,1232
2017-01-18T15:10:13.289Z,1144
2017-01-18T15:12:29.608Z,956
2017-01-18T15:14:39.679Z,860
2017-01-18T15:16:57.983Z,800
2017-01-18T15:19:11.282Z,768
2017-01-18T15:21:26.978Z,696
2017-01-18T15:23:44.630Z,624
2017-01-18T15:25:59.541Z,584
2017-01-18T15:28:16.884Z,532
2017-01-18T15:30:32.230Z,472
2017-01-18T15:32:48.423Z,408
2017-01-18T15:35:04.550Z,356
2017-01-18T15:37:21.858Z,320
2017-01-18T15:39:35.782Z,276
2017-01-18T15:41:48.290Z,252
2017-01-18T15:43:56.354Z,216
2017-01-18T15:46:08.909Z,204
2017-01-18T15:48:21.919Z,160
2017-01-18T15:50:29.936Z,132
2017-01-18T15:52:42.247Z,108
2017-01-18T15:54:54.845Z,88
2017-01-18T15:57:08.387Z,72
2017-01-18T15:59:20.962Z,60
2017-01-18T16:01:33.868Z,44
2017-01-18T16:03:46.170Z,36
2017-01-18T16:05:58.494Z,24
2017-01-18T16:08:12.212Z,20
2017-01-18T16:10:26.260Z,16
2017-01-18T16:12:33.606Z,8
2017-01-18T16:14:46.199Z,8
2017-01-18T16:16:58.544Z,4
2017-01-18T16:19:11.477Z,4
2017-01-18T16:21:24.239Z,4
2017-01-18T16:23:37.554Z,0
2017-01-18T16:25:52.583Z,0
2017-01-18T16:28:07.352Z,0
2017-01-18T16:30:21.840Z,0
2017-01-18T16:32:37.253Z,0
2017-01-18T16:34:46.881Z,0
2017-01-18T16:37:02.888Z,0
2017-01-18T16:39:17.600Z,0
2017-01-18T16:41:33.018Z,0
2017-01-18T16:43:46.370Z,0
2017-01-18T16:46:00.850Z,0
2017-01-18T16:48:14.663Z,0
2017-01-18T16:50:28.746Z,0
2017-01-18T16:52:38.332Z,0
2017-01-18T16:54:53.206Z,0
2017-01-18T16:57:05.969Z,0
2017-01-18T16:59:19.218Z,0
2017-01-18T17:01:28.784Z,0
2017-01-18T17:03:42.700Z,0
2017-01-18T17:05:56.640Z,0
2017-01-18T17:08:06.453Z,0
2017-01-18T17:10:20.267Z,0
2017-01-18T17:12:33.112Z,0
2017-01-18T17:14:41.533Z,0
2017-01-18T17:16:55.472Z,0
2017-01-18T17:19:09.717Z,0
2017-01-18T17:21:23.196Z,0
2017-01-18T17:23:38.496Z,0
2017-01-18T17:25:51.956Z,0
2017-01-18T17:28:07.692Z,0
2017-01-18T17:30:23.086Z,0
2017-01-18T17:32:39.130Z,0
2017-01-18T17:34:52.932Z,0
2017-01-18T17:37:06.350Z,0
2017-01-18T17:39:18.760Z,0
2017-01-18T17:41:31.010Z,0
2017-01-18T17:43:43.704Z,0
2017-01-18T17:45:56.092Z,0
2017-01-18T17:48:04.399Z,0
2017-01-18T17:50:12.558Z,0
2017-01-18T17:52:25.121Z,0
2017-01-18T17:54:32.937Z,0
2017-01-18T17:56:46.089Z,0
2017-01-18T17:59:03.549Z,0
2017-01-18T18:01:20.779Z,0
2017-01-18T18:03:35.616Z,0
2017-01-18T18:05:46.313Z,0
2017-01-18T18:08:01.763Z,0
2017-01-18T18:10:16.785Z,0
2017-01-18T18:12:31.652Z,0
2017-01-18T18:14:45.975Z,0
2017-01-18T18:16:58.253Z,0
2017-01-18T18:19:05.814Z,0
2017-01-18T18:21:18.200Z,0
2017-01-18T18:23:25.524Z,0
2017-01-18T18:25:38.047Z,0
2017-01-18T18:27:51.443Z,0
2017-01-18T18:30:03.908Z,0
2017-01-18T18:32:17.282Z,0
2017-01-18T18:34:29.948Z,0
2017-01-18T18:36:42.334Z,0
2017-01-18T18:38:54.814Z,0
2017-01-18T18:41:02.389Z,0
2017-01-18T18:43:14.706Z,0
2017-01-18T18:45:26.900Z,0
2017-01-18T18:47:39.454Z,0
2017-01-18T18:49:51.764Z,0
2017-01-18T18:52:02.521Z,0
2017-01-18T18:54:15.218Z,0
2017-01-18T18:56:27.872Z,0
2017-01-18T18:58:40.797Z,0
2017-01-18T19:00:55.522Z,0
2017-01-18T19:03:09.004Z,0
2017-01-18T19:05:22.722Z,0
2017-01-18T19:07:35.049Z,0
2017-01-18T19:09:49.732Z,0
2017-01-18T19:12:00.493Z,0
2017-01-18T19:14:12.911Z,0
2017-01-18T19:16:25.281Z,0
2017-01-18T19:18:37.611Z,0
2017-01-18T19:20:50.737Z,0
2017-01-18T19:23:03.670Z,0
2017-01-18T19:25:16.261Z,0
2017-01-18T19:27:28.579Z,0
2017-01-18T19:29:41.763Z,0
2017-01-18T19:31:54.349Z,0
2017-01-18T19:34:06.939Z,0
2017-01-18T19:36:19.320Z,0
2017-01-18T19:38:31.702Z,0
2017-01-18T19:40:45.047Z,0
2017-01-18T19:42:57.451Z,0
2017-01-18T19:45:09.707Z,0
2017-01-18T19:47:22.934Z,0
2017-01-18T19:49:31.466Z,0
2017-01-18T19:51:43.919Z,0
2017-01-18T19:53:56.506Z,0
2017-01-18T19:56:09.081Z,0
2017-01-18T19:58:21.422Z,0
2017-01-18T20:00:33.774Z,0
2017-01-18T20:02:41.399Z,0
2017-01-18T20:04:48.756Z,0
2017-01-18T20:07:00.999Z,0
2017-01-18T20:09:13.608Z,0
2017-01-18T20:11:27.204Z,0
2017-01-18T20:13:39.483Z,0
2017-01-18T20:15:52.079Z,0
2017-01-18T20:18:04.551Z,0
2017-01-18T20:20:17.095Z,0
2017-01-18T20:22:29.618Z,0
2017-01-18T20:24:36.888Z,0
2017-01-18T20:26:49.359Z,0
2017-01-18T20:29:01.683Z,0
2017-01-18T20:31:14.069Z,0
2017-01-18T20:33:26.322Z,0
2017-01-18T20:35:42.103Z,0
2017-01-18T20:37:55.778Z,0
2017-01-18T20:40:09.459Z,0
2017-01-18T20:42:17.138Z,0
2017-01-18T20:44:30.097Z,0
2017-01-18T20:46:42.828Z,0
2017-01-18T20:48:55.262Z,0
2017-01-18T20:51:08.250Z,0
2017-01-18T20:53:20.928Z,0
2017-01-18T20:55:35.006Z,0
2017-01-18T20:57:48.423Z,0
2017-01-18T20:59:59.326Z,0
2017-01-18T21:02:13.214Z,0
2017-01-18T21:04:20.566Z,0
2017-01-18T21:06:28.844Z,0
2017-01-18T21:08:44.432Z,0
2017-01-18T21:10:56.681Z,0
2017-01-18T21:13:27.214Z,0
2017-01-18T21:15:39.776Z,0
2017-01-18T21:17:52.606Z,0
2017-01-18T21:20:05.360Z,0
2017-01-18T21:22:17.817Z,0
2017-01-18T21:24:30.101Z,0
2017-01-18T21:26:50.652Z,0
2017-01-18T21:29:02.979Z,0
2017-01-18T21:31:15.541Z,0
2017-01-18T21:33:27.906Z,0
2017-01-18T21:35:40.220Z,0
2017-01-18T21:37:52.674Z,0
2017-01-18T21:40:05.318Z,0
2017-01-18T21:42:17.837Z,0
2017-01-18T21:44:30.186Z,0
2017-01-18T21:46:42.665Z,0
2017-01-18T21:48:50.145Z,0
2017-01-18T21:51:06.794Z,0
2017-01-18T21:53:19.214Z,0
2017-01-18T21:55:42.441Z,0
2017-01-18T21:57:55.223Z,0
2017-01-18T22:00:08.787Z,0
2017-01-18T22:02:21.324Z,0
2017-01-18T22:04:33.549Z,0
2017-01-18T22:06:45.821Z,0
2017-01-18T22:08:58.302Z,0
2017-01-18T22:11:10.778Z,0
2017-01-18T22:13:23.173Z,0
2017-01-18T22:15:30.561Z,0
2017-01-18T22:17:43.061Z,0
2017-01-18T22:19:51.847Z,0
2017-01-18T22:22:04.325Z,0
2017-01-18T22:24:16.991Z,0
2017-01-18T22:26:29.229Z,0
2017-01-18T22:28:41.660Z,0
2017-01-18T22:30:54.489Z,0
2017-01-18T22:33:06.878Z,0
2017-01-18T22:35:19.166Z,0
2017-01-18T22:37:31.469Z,0
2017-01-18T22:39:38.648Z,0
2017-01-18T22:41:50.941Z,0
2017-01-18T22:44:03.168Z,0
2017-01-18T22:46:15.519Z,0
2017-01-18T22:48:27.841Z,0
2017-01-18T22:50:40.076Z,0
2017-01-18T22:52:52.440Z,0
2017-01-18T22:55:04.827Z,0
2017-01-18T22:57:17.289Z,0
2017-01-18T22:59:24.788Z,0
2017-01-18T23:01:32.036Z,0
2017-01-18T23:03:44.427Z,0
2017-01-18T23:05:57.122Z,0
2017-01-18T23:08:09.632Z,0
2017-01-18T23:10:17.195Z,0
2017-01-18T23:12:29.436Z,0
2017-01-18T23:14:41.723Z,0
2017-01-18T23:16:54.056Z,0
2017-01-18T23:19:06.446Z,0
2017-01-18T23:21:18.757Z,0
2017-01-18T23:23:21.051Z,0
2017-01-18T23:25:33.446Z,0
2017-01-18T23:27:45.998Z,0
2017-01-18T23:29:58.406Z,0
2017-01-18T23:32:10.896Z,0
2017-01-18T23:34:23.254Z,0
2017-01-18T23:36:35.461Z,0
2017-01-18T23:38:51.080Z,0
2017-01-18T23:41:05.186Z,0
2017-01-18T23:43:17.715Z,0
2017-01-18T23:45:29.918Z,0
2017-01-18T23:47:43.090Z,0
2017-01-18T23:49:58.645Z,0
2017-01-18T23:52:13.200Z,0
2017-01-18T23:54:29.106Z,0
2017-01-18T23:56:43.835Z,0
